createdAt,value
2016-07-08T00:00:05.200Z,0
2016-07-08T00:01:05.231Z,0
2016-07-08T00:02:05.194Z,0
2016-07-08T00:03:05.200Z,0
2016-07-08T00:04:05.243Z,0
2016-07-08T00:05:05.251Z,0
2016-07-08T00:06:05.257Z,0
2016-07-08T00:07:05.236Z,0
2016-07-08T00:08:05.278Z,0
2016-07-08T00:09:05.263Z,0
2016-07-08T00:10:05.259Z,0
2016-07-08T00:11:05.305Z,0
2016-07-08T00:12:05.298Z,0
2016-07-08T00:13:05.306Z,0
2016-07-08T00:14:05.352Z,0
2016-07-08T00:15:05.307Z,0
2016-07-08T00:16:05.321Z,0
2016-07-08T00:17:05.332Z,0
2016-07-08T00:18:05.367Z,0
2016-07-08T00:19:05.359Z,0
2016-07-08T00:20:05.365Z,0
2016-07-08T00:21:05.382Z,0
2016-07-08T00:22:05.417Z,0
2016-07-08T00:23:05.428Z,0
2016-07-08T00:24:05.418Z,0
2016-07-08T00:25:05.418Z,0
2016-07-08T00:26:05.424Z,0
2016-07-08T00:27:05.390Z,0
2016-07-08T00:28:06.082Z,0
2016-07-08T00:29:05.433Z,0
2016-07-08T00:30:05.470Z,0
2016-07-08T00:31:05.430Z,0
2016-07-08T00:32:05.671Z,0
2016-07-08T00:33:05.488Z,0
2016-07-08T00:34:05.474Z,0
2016-07-08T00:35:05.512Z,0
2016-07-08T00:36:05.511Z,0
2016-07-08T00:37:05.506Z,0
2016-07-08T00:38:05.522Z,0
2016-07-08T00:39:06.113Z,0
2016-07-08T00:40:05.507Z,0
2016-07-08T00:41:05.547Z,0
2016-07-08T00:42:05.549Z,0
2016-07-08T00:43:05.581Z,0
2016-07-08T00:44:05.592Z,0
2016-07-08T00:45:06.237Z,0
2016-07-08T00:46:05.601Z,0
2016-07-08T00:47:05.596Z,0
2016-07-08T00:48:05.632Z,0
2016-07-08T00:49:05.601Z,0
2016-07-08T00:50:05.610Z,0
2016-07-08T00:51:05.658Z,0
2016-07-08T00:52:05.636Z,0
2016-07-08T00:53:05.623Z,0
2016-07-08T00:54:05.663Z,0
2016-07-08T00:55:05.670Z,0
2016-07-08T00:56:05.693Z,0
2016-07-08T00:57:06.045Z,0
2016-07-08T00:58:05.722Z,0
2016-07-08T00:59:05.742Z,0
2016-07-08T01:00:05.723Z,0
2016-07-08T01:01:05.723Z,0
2016-07-08T01:02:06.071Z,0
2016-07-08T01:03:06.040Z,0
2016-07-08T01:04:05.776Z,0
2016-07-08T01:05:05.727Z,0
2016-07-08T01:06:06.079Z,0
2016-07-08T01:07:06.017Z,0
2016-07-08T01:08:05.821Z,0
2016-07-08T01:09:05.779Z,0
2016-07-08T01:10:06.048Z,0
2016-07-08T01:11:06.023Z,0
2016-07-08T01:12:05.790Z,0
2016-07-08T01:13:05.846Z,0
2016-07-08T01:14:05.890Z,0
2016-07-08T01:15:05.844Z,0
2016-07-08T01:16:05.839Z,0
2016-07-08T01:17:05.883Z,0
2016-07-08T01:18:06.161Z,0
2016-07-08T01:19:06.025Z,0
2016-07-08T01:20:05.884Z,0
2016-07-08T01:21:05.888Z,0
2016-07-08T01:22:05.914Z,0
2016-07-08T01:23:05.944Z,0
2016-07-08T01:24:05.948Z,0
2016-07-08T01:25:05.920Z,0
2016-07-08T01:26:06.032Z,0
2016-07-08T01:27:05.951Z,0
2016-07-08T01:28:06.047Z,0
2016-07-08T01:29:06.001Z,0
2016-07-08T01:30:05.954Z,0
2016-07-08T01:31:06.034Z,0
2016-07-08T01:32:05.989Z,0
2016-07-08T01:33:06.095Z,0
2016-07-08T01:34:06.039Z,0
2016-07-08T01:35:05.980Z,0
2016-07-08T01:36:06.025Z,0
2016-07-08T01:37:06.068Z,0
2016-07-08T01:38:06.064Z,0
2016-07-08T01:39:06.044Z,0
2016-07-08T01:40:06.095Z,0
2016-07-08T01:41:06.085Z,0
2016-07-08T01:42:06.055Z,0
2016-07-08T01:43:06.099Z,0
2016-07-08T01:44:06.155Z,0
2016-07-08T01:45:06.170Z,0
2016-07-08T01:46:06.127Z,0
2016-07-08T01:47:06.128Z,0
2016-07-08T01:48:06.141Z,0
2016-07-08T01:49:06.132Z,0
2016-07-08T01:50:06.140Z,0
2016-07-08T01:51:06.191Z,0
2016-07-08T01:52:06.129Z,0
2016-07-08T01:53:06.187Z,0
2016-07-08T01:54:06.199Z,0
2016-07-08T01:55:06.513Z,0
2016-07-08T01:56:06.192Z,0
2016-07-08T01:57:06.193Z,0
2016-07-08T01:58:06.224Z,0
2016-07-08T01:59:06.202Z,0
2016-07-08T02:00:06.312Z,0
2016-07-08T02:01:06.246Z,0
2016-07-08T02:02:06.280Z,0
2016-07-08T02:03:06.273Z,0
2016-07-08T02:04:06.272Z,0
2016-07-08T02:05:06.277Z,0
2016-07-08T02:06:06.659Z,0
2016-07-08T02:07:06.522Z,0
2016-07-08T02:08:06.326Z,0
2016-07-08T02:09:06.274Z,0
2016-07-08T02:10:06.314Z,0
2016-07-08T02:11:06.575Z,0
2016-07-08T02:12:06.320Z,0
2016-07-08T02:13:06.487Z,0
2016-07-08T02:14:06.396Z,0
2016-07-08T02:15:06.556Z,0
2016-07-08T02:16:06.345Z,0
2016-07-08T02:17:06.583Z,0
2016-07-08T02:18:06.392Z,0
2016-07-08T02:19:06.404Z,0
2016-07-08T02:20:06.502Z,0
2016-07-08T02:21:06.383Z,0
2016-07-08T02:22:06.478Z,0
2016-07-08T02:23:06.435Z,0
2016-07-08T02:24:06.519Z,0
2016-07-08T02:25:06.492Z,0
2016-07-08T02:26:07.072Z,0
2016-07-08T02:27:06.483Z,0
2016-07-08T02:28:06.502Z,0
2016-07-08T02:29:06.807Z,0
2016-07-08T02:30:06.492Z,0
2016-07-08T02:31:06.515Z,0
2016-07-08T02:32:06.735Z,0
2016-07-08T02:33:06.712Z,0
2016-07-08T02:34:06.557Z,0
2016-07-08T02:35:06.530Z,0
2016-07-08T02:36:06.533Z,0
2016-07-08T02:37:06.576Z,0
2016-07-08T02:38:06.566Z,0
2016-07-08T02:39:06.617Z,0
2016-07-08T02:40:07.188Z,0
2016-07-08T02:41:06.592Z,0
2016-07-08T02:42:06.623Z,0
2016-07-08T02:43:06.592Z,0
2016-07-08T02:44:06.934Z,0
2016-07-08T02:45:06.759Z,0
2016-07-08T02:46:06.656Z,0
2016-07-08T02:47:06.634Z,0
2016-07-08T02:48:06.639Z,0
2016-07-08T02:49:07.281Z,0
2016-07-08T02:50:06.668Z,0
2016-07-08T02:51:06.725Z,0
2016-07-08T02:52:06.696Z,0
2016-07-08T02:53:06.700Z,0
2016-07-08T02:54:06.673Z,0
2016-07-08T02:55:06.716Z,0
2016-07-08T02:56:06.692Z,0
2016-07-08T02:57:06.839Z,0
2016-07-08T02:58:06.746Z,0
2016-07-08T02:59:06.752Z,0
2016-07-08T03:00:06.752Z,0
2016-07-08T03:01:06.799Z,0
2016-07-08T03:02:06.783Z,0
2016-07-08T03:03:06.794Z,0
2016-07-08T03:04:06.798Z,0
2016-07-08T03:05:06.818Z,0
2016-07-08T03:06:06.826Z,0
2016-07-08T03:07:06.809Z,0
2016-07-08T03:08:06.838Z,0
2016-07-08T03:09:06.828Z,0
2016-07-08T03:10:06.848Z,0
2016-07-08T03:11:06.942Z,0
2016-07-08T03:12:06.831Z,0
2016-07-08T03:13:06.898Z,0
2016-07-08T03:14:06.952Z,0
2016-07-08T03:15:06.885Z,0
2016-07-08T03:16:06.900Z,0
2016-07-08T03:17:06.907Z,0
2016-07-08T03:18:06.896Z,0
2016-07-08T03:19:06.913Z,0
2016-07-08T03:20:06.924Z,0
2016-07-08T03:21:06.917Z,0
2016-07-08T03:22:06.941Z,0
2016-07-08T03:23:06.960Z,0
2016-07-08T03:24:06.965Z,0
2016-07-08T03:25:06.985Z,0
2016-07-08T03:26:06.958Z,0
2016-07-08T03:27:06.975Z,0
2016-07-08T03:28:07.012Z,0
2016-07-08T03:29:07.022Z,0
2016-07-08T03:30:07.014Z,0
2016-07-08T03:31:07.039Z,0
2016-07-08T03:32:07.038Z,0
2016-07-08T03:33:07.230Z,0
2016-07-08T03:34:07.045Z,0
2016-07-08T03:35:07.031Z,0
2016-07-08T03:36:07.068Z,0
2016-07-08T03:37:07.068Z,0
2016-07-08T03:38:07.074Z,0
2016-07-08T03:39:07.077Z,0
2016-07-08T03:40:07.085Z,4
2016-07-08T03:41:07.109Z,4
2016-07-08T03:42:07.135Z,4
2016-07-08T03:43:07.118Z,4
2016-07-08T03:44:07.131Z,4
2016-07-08T03:45:07.184Z,4
2016-07-08T03:46:07.170Z,4
2016-07-08T03:47:07.179Z,4
2016-07-08T03:48:07.174Z,0
2016-07-08T03:49:07.168Z,0
2016-07-08T03:50:07.201Z,0
2016-07-08T03:51:07.174Z,0
2016-07-08T03:52:07.206Z,4
2016-07-08T03:53:07.190Z,4
2016-07-08T03:54:07.215Z,4
2016-07-08T03:55:07.227Z,4
2016-07-08T03:56:07.220Z,4
2016-07-08T03:57:07.248Z,4
2016-07-08T03:58:07.258Z,4
2016-07-08T03:59:07.251Z,8
2016-07-08T04:00:07.272Z,4
2016-07-08T04:01:07.274Z,4
2016-07-08T04:02:07.304Z,4
2016-07-08T04:03:07.274Z,4
2016-07-08T04:04:07.306Z,4
2016-07-08T04:05:07.352Z,8
2016-07-08T04:06:07.292Z,8
2016-07-08T04:07:07.301Z,4
2016-07-08T04:08:07.376Z,4
2016-07-08T04:09:07.383Z,8
2016-07-08T04:10:07.350Z,8
2016-07-08T04:11:07.348Z,4
2016-07-08T04:12:07.389Z,8
2016-07-08T04:13:07.422Z,8
2016-07-08T04:14:07.376Z,8
2016-07-08T04:15:07.410Z,12
2016-07-08T04:16:07.429Z,8
2016-07-08T04:17:07.416Z,12
2016-07-08T04:18:07.433Z,8
2016-07-08T04:19:07.453Z,8
2016-07-08T04:20:07.431Z,8
2016-07-08T04:21:07.462Z,8
2016-07-08T04:22:07.494Z,8
2016-07-08T04:23:07.465Z,12
2016-07-08T04:24:07.509Z,12
2016-07-08T04:25:07.468Z,12
2016-07-08T04:26:07.481Z,16
2016-07-08T04:27:07.535Z,16
2016-07-08T04:28:07.515Z,12
2016-07-08T04:29:07.507Z,16
2016-07-08T04:30:07.493Z,16
2016-07-08T04:31:07.523Z,16
2016-07-08T04:32:07.516Z,16
2016-07-08T04:33:07.597Z,12
2016-07-08T04:34:07.567Z,12
2016-07-08T04:35:07.587Z,12
2016-07-08T04:36:07.568Z,12
2016-07-08T04:37:07.568Z,16
2016-07-08T04:38:07.628Z,16
2016-07-08T04:39:07.608Z,16
2016-07-08T04:40:07.600Z,16
2016-07-08T04:41:07.616Z,16
2016-07-08T04:42:07.620Z,16
2016-07-08T04:43:07.625Z,16
2016-07-08T04:44:07.631Z,16
2016-07-08T04:45:07.643Z,16
2016-07-08T04:46:07.677Z,16
2016-07-08T04:47:07.666Z,12
2016-07-08T04:48:07.683Z,12
2016-07-08T04:49:07.706Z,16
2016-07-08T04:50:07.702Z,12
2016-07-08T04:51:07.682Z,16
2016-07-08T04:52:07.680Z,16
2016-07-08T04:53:07.699Z,16
2016-07-08T04:54:07.723Z,16
2016-07-08T04:55:07.727Z,16
2016-07-08T04:56:07.732Z,16
2016-07-08T04:57:07.766Z,16
2016-07-08T04:58:07.746Z,12
2016-07-08T04:59:07.782Z,12
2016-07-08T05:00:07.753Z,12
2016-07-08T05:01:07.781Z,16
2016-07-08T05:02:07.813Z,12
2016-07-08T05:03:07.823Z,16
2016-07-08T05:04:07.833Z,16
2016-07-08T05:05:07.838Z,16
2016-07-08T05:06:07.887Z,12
2016-07-08T05:07:07.869Z,12
2016-07-08T05:08:07.890Z,12
2016-07-08T05:09:07.881Z,12
2016-07-08T05:10:07.850Z,12
2016-07-08T05:11:07.839Z,12
2016-07-08T05:12:07.891Z,16
2016-07-08T05:13:07.884Z,16
2016-07-08T05:14:07.918Z,16
2016-07-08T05:15:07.907Z,16
2016-07-08T05:16:07.903Z,16
2016-07-08T05:17:07.933Z,16
2016-07-08T05:18:08.072Z,16
2016-07-08T05:19:07.947Z,20
2016-07-08T05:20:07.948Z,16
2016-07-08T05:21:07.962Z,16
2016-07-08T05:22:08.235Z,16
2016-07-08T05:23:08.002Z,16
2016-07-08T05:24:08.025Z,16
2016-07-08T05:25:07.976Z,16
2016-07-08T05:26:08.238Z,16
2016-07-08T05:27:08.194Z,16
2016-07-08T05:28:07.999Z,16
2016-07-08T05:29:08.030Z,12
2016-07-08T05:30:08.263Z,16
2016-07-08T05:31:08.034Z,16
2016-07-08T05:32:08.229Z,16
2016-07-08T05:33:08.284Z,16
2016-07-08T05:34:08.357Z,12
2016-07-08T05:35:08.189Z,16
2016-07-08T05:36:08.093Z,16
2016-07-08T05:37:08.122Z,16
2016-07-08T05:38:08.298Z,12
2016-07-08T05:39:08.099Z,16
2016-07-08T05:40:08.129Z,16
2016-07-08T05:41:08.129Z,16
2016-07-08T05:42:08.372Z,16
2016-07-08T05:43:08.239Z,12
2016-07-08T05:44:08.166Z,16
2016-07-08T05:45:08.149Z,12
2016-07-08T05:46:08.435Z,12
2016-07-08T05:47:08.172Z,12
2016-07-08T05:48:08.313Z,16
2016-07-08T05:49:08.211Z,12
2016-07-08T05:50:08.234Z,8
2016-07-08T05:51:08.201Z,16
2016-07-08T05:52:08.397Z,12
2016-07-08T05:53:08.262Z,12
2016-07-08T05:54:08.218Z,12
2016-07-08T05:55:08.250Z,8
2016-07-08T05:56:08.261Z,12
2016-07-08T05:57:08.291Z,12
2016-07-08T05:58:08.312Z,12
2016-07-08T05:59:08.304Z,8
2016-07-08T06:00:08.275Z,12
2016-07-08T06:01:08.344Z,12
2016-07-08T06:02:08.330Z,8
2016-07-08T06:03:08.559Z,8
2016-07-08T06:04:08.331Z,12
2016-07-08T06:05:08.950Z,12
2016-07-08T06:06:08.410Z,12
2016-07-08T06:07:08.365Z,12
2016-07-08T06:08:08.398Z,12
2016-07-08T06:09:08.482Z,12
2016-07-08T06:10:08.424Z,12
2016-07-08T06:11:08.420Z,12
2016-07-08T06:12:08.401Z,12
2016-07-08T06:13:08.438Z,16
2016-07-08T06:14:08.753Z,16
2016-07-08T06:15:08.453Z,12
2016-07-08T06:16:08.435Z,16
2016-07-08T06:17:08.438Z,12
2016-07-08T06:18:08.750Z,16
2016-07-08T06:19:08.483Z,16
2016-07-08T06:20:09.437Z,16
2016-07-08T06:21:08.489Z,12
2016-07-08T06:22:08.870Z,16
2016-07-08T06:23:08.492Z,16
2016-07-08T06:24:08.533Z,16
2016-07-08T06:25:08.499Z,16
2016-07-08T06:26:08.648Z,16
2016-07-08T06:27:08.844Z,20
2016-07-08T06:28:08.539Z,20
2016-07-08T06:29:08.546Z,16
2016-07-08T06:30:08.582Z,16
2016-07-08T06:31:08.645Z,16
2016-07-08T06:32:08.571Z,16
2016-07-08T06:33:08.808Z,20
2016-07-08T06:34:08.593Z,16
2016-07-08T06:35:08.660Z,16
2016-07-08T06:36:08.853Z,12
2016-07-08T06:37:08.854Z,16
2016-07-08T06:38:08.634Z,16
2016-07-08T06:39:08.935Z,16
2016-07-08T06:40:08.668Z,12
2016-07-08T06:41:08.694Z,16
2016-07-08T06:42:08.929Z,16
2016-07-08T06:43:08.684Z,16
2016-07-08T06:44:08.848Z,16
2016-07-08T06:45:08.731Z,20
2016-07-08T06:46:09.009Z,20
2016-07-08T06:47:08.754Z,20
2016-07-08T06:48:08.737Z,20
2016-07-08T06:49:08.708Z,16
2016-07-08T06:50:09.059Z,16
2016-07-08T06:51:08.756Z,16
2016-07-08T06:52:08.956Z,20
2016-07-08T06:53:08.782Z,16
2016-07-08T06:54:08.881Z,16
2016-07-08T06:55:08.958Z,16
2016-07-08T06:56:08.769Z,16
2016-07-08T06:57:08.784Z,16
2016-07-08T06:58:08.791Z,16
2016-07-08T06:59:08.807Z,16
2016-07-08T07:00:08.903Z,12
2016-07-08T07:01:08.851Z,16
2016-07-08T07:02:08.947Z,16
2016-07-08T07:03:08.848Z,16
2016-07-08T07:04:09.433Z,16
2016-07-08T07:05:09.007Z,20
2016-07-08T07:06:08.884Z,20
2016-07-08T07:07:08.888Z,20
2016-07-08T07:08:08.893Z,20
2016-07-08T07:09:08.908Z,20
2016-07-08T07:10:08.898Z,20
2016-07-08T07:11:08.933Z,24
2016-07-08T07:12:09.001Z,20
2016-07-08T07:13:08.964Z,20
2016-07-08T07:14:08.963Z,20
2016-07-08T07:15:08.927Z,20
2016-07-08T07:16:08.977Z,24
2016-07-08T07:17:09.000Z,24
2016-07-08T07:18:09.010Z,20
2016-07-08T07:19:08.995Z,24
2016-07-08T07:20:08.999Z,20
2016-07-08T07:21:09.033Z,20
2016-07-08T07:22:09.034Z,20
2016-07-08T07:23:09.049Z,20
2016-07-08T07:24:09.077Z,20
2016-07-08T07:25:09.050Z,20
2016-07-08T07:26:09.045Z,20
2016-07-08T07:27:09.064Z,20
2016-07-08T07:28:09.093Z,20
2016-07-08T07:29:09.076Z,20
2016-07-08T07:30:09.120Z,20
2016-07-08T07:31:09.102Z,20
2016-07-08T07:32:09.127Z,20
2016-07-08T07:33:09.114Z,24
2016-07-08T07:34:09.155Z,24
2016-07-08T07:35:09.141Z,24
2016-07-08T07:36:09.142Z,20
2016-07-08T07:37:09.136Z,20
2016-07-08T07:38:09.160Z,20
2016-07-08T07:39:09.149Z,20
2016-07-08T07:40:09.167Z,20
2016-07-08T07:41:09.206Z,20
2016-07-08T07:42:09.229Z,20
2016-07-08T07:43:09.204Z,24
2016-07-08T07:44:09.204Z,20
2016-07-08T07:45:09.258Z,20
2016-07-08T07:46:09.291Z,20
2016-07-08T07:47:09.267Z,20
2016-07-08T07:48:09.272Z,24
2016-07-08T07:49:09.281Z,20
2016-07-08T07:50:09.298Z,24
2016-07-08T07:51:09.291Z,24
2016-07-08T07:52:09.293Z,24
2016-07-08T07:53:09.334Z,24
2016-07-08T07:54:09.326Z,24
2016-07-08T07:55:09.317Z,28
2016-07-08T07:56:09.320Z,28
2016-07-08T07:57:09.351Z,28
2016-07-08T07:58:09.350Z,28
2016-07-08T07:59:09.357Z,28
2016-07-08T08:00:09.390Z,28
2016-07-08T08:01:09.361Z,28
2016-07-08T08:02:09.391Z,28
2016-07-08T08:03:09.402Z,24
2016-07-08T08:04:09.399Z,24
2016-07-08T08:05:09.413Z,24
2016-07-08T08:06:09.400Z,28
2016-07-08T08:07:09.417Z,28
2016-07-08T08:08:09.481Z,24
2016-07-08T08:09:09.458Z,20
2016-07-08T08:10:09.462Z,20
2016-07-08T08:11:09.467Z,24
2016-07-08T08:12:09.498Z,20
2016-07-08T08:13:10.073Z,20
2016-07-08T08:14:09.521Z,20
2016-07-08T08:15:09.550Z,20
2016-07-08T08:16:09.483Z,24
2016-07-08T08:17:09.485Z,28
2016-07-08T08:18:09.571Z,24
2016-07-08T08:19:09.556Z,24
2016-07-08T08:20:09.543Z,24
2016-07-08T08:21:09.580Z,24
2016-07-08T08:22:09.564Z,24
2016-07-08T08:23:09.590Z,24
2016-07-08T08:24:09.612Z,24
2016-07-08T08:25:09.593Z,20
2016-07-08T08:26:09.634Z,24
2016-07-08T08:27:09.609Z,20
2016-07-08T08:28:09.666Z,24
2016-07-08T08:29:09.631Z,20
2016-07-08T08:30:09.640Z,24
2016-07-08T08:31:09.672Z,20
2016-07-08T08:32:09.645Z,24
2016-07-08T08:33:09.663Z,20
2016-07-08T08:34:09.708Z,20
2016-07-08T08:35:09.654Z,20
2016-07-08T08:36:09.681Z,24
2016-07-08T08:37:09.691Z,20
2016-07-08T08:38:09.705Z,20
2016-07-08T08:39:09.737Z,20
2016-07-08T08:40:09.728Z,20
2016-07-08T08:41:09.737Z,24
2016-07-08T08:42:09.721Z,20
2016-07-08T08:43:09.777Z,24
2016-07-08T08:44:09.795Z,24
2016-07-08T08:45:09.784Z,24
2016-07-08T08:46:09.767Z,20
2016-07-08T08:47:09.776Z,20
2016-07-08T08:48:09.836Z,28
2016-07-08T08:49:09.803Z,24
2016-07-08T08:50:09.851Z,24
2016-07-08T08:51:09.815Z,24
2016-07-08T08:52:09.840Z,28
2016-07-08T08:53:09.872Z,24
2016-07-08T08:54:09.847Z,24
2016-07-08T08:55:09.886Z,20
2016-07-08T08:56:48.219Z,20
2016-07-08T08:57:09.855Z,20
2016-07-08T08:58:09.863Z,24
2016-07-08T08:59:09.875Z,24
2016-07-08T09:00:09.889Z,24
2016-07-08T09:01:09.890Z,20
2016-07-08T09:02:09.899Z,20
2016-07-08T09:03:09.909Z,16
2016-07-08T09:04:09.957Z,28
2016-07-08T09:05:09.983Z,24
2016-07-08T09:06:09.936Z,24
2016-07-08T09:07:09.945Z,24
2016-07-08T09:08:09.985Z,28
2016-07-08T09:09:10.010Z,24
2016-07-08T09:10:09.986Z,28
2016-07-08T09:11:10.006Z,28
2016-07-08T09:12:10.011Z,28
2016-07-08T09:13:10.012Z,24
2016-07-08T09:14:10.687Z,24
2016-07-08T09:15:10.040Z,28
2016-07-08T09:16:10.063Z,28
2016-07-08T09:17:10.065Z,28
2016-07-08T09:18:10.098Z,28
2016-07-08T09:19:10.098Z,28
2016-07-08T09:20:11.010Z,24
2016-07-08T09:21:10.121Z,28
2016-07-08T09:22:10.111Z,24
2016-07-08T09:23:10.091Z,24
2016-07-08T09:24:10.153Z,24
2016-07-08T09:25:10.172Z,24
2016-07-08T09:26:10.161Z,24
2016-07-08T09:27:10.176Z,24
2016-07-08T09:28:10.174Z,24
2016-07-08T09:29:10.184Z,24
2016-07-08T09:30:10.204Z,24
2016-07-08T09:31:10.193Z,24
2016-07-08T09:32:10.200Z,28
2016-07-08T09:33:10.193Z,28
2016-07-08T09:34:10.255Z,28
2016-07-08T09:35:10.279Z,28
2016-07-08T09:36:10.256Z,28
2016-07-08T09:37:10.227Z,28
2016-07-08T09:38:10.271Z,28
2016-07-08T09:39:10.335Z,28
2016-07-08T09:40:10.298Z,24
2016-07-08T09:41:10.285Z,24
2016-07-08T09:42:10.313Z,24
2016-07-08T09:43:10.315Z,24
2016-07-08T09:44:10.335Z,24
2016-07-08T09:45:10.335Z,24
2016-07-08T09:46:10.342Z,24
2016-07-08T09:47:10.365Z,28
2016-07-08T09:48:10.379Z,28
2016-07-08T09:49:10.366Z,28
2016-07-08T09:50:10.357Z,28
2016-07-08T09:51:10.434Z,28
2016-07-08T09:52:10.405Z,28
2016-07-08T09:53:10.459Z,28
2016-07-08T09:54:10.406Z,28
2016-07-08T09:55:10.438Z,28
2016-07-08T09:56:10.456Z,28
2016-07-08T09:57:10.451Z,28
2016-07-08T09:58:10.445Z,28
2016-07-08T09:59:10.462Z,28
2016-07-08T10:00:10.462Z,32
2016-07-08T10:01:10.479Z,28
2016-07-08T10:02:10.494Z,28
2016-07-08T10:03:10.525Z,32
2016-07-08T10:04:10.495Z,32
2016-07-08T10:05:10.526Z,32
2016-07-08T10:06:10.524Z,28
2016-07-08T10:07:10.566Z,28
2016-07-08T10:08:10.544Z,28
2016-07-08T10:09:10.544Z,28
2016-07-08T10:10:10.566Z,28
2016-07-08T10:11:10.589Z,28
2016-07-08T10:12:10.608Z,28
2016-07-08T10:13:10.617Z,32
2016-07-08T10:14:10.625Z,32
2016-07-08T10:15:10.620Z,24
2016-07-08T10:16:10.639Z,28
2016-07-08T10:17:10.617Z,32
2016-07-08T10:18:10.638Z,32
2016-07-08T10:19:10.620Z,32
2016-07-08T10:20:10.675Z,32
2016-07-08T10:21:10.681Z,32
2016-07-08T10:22:10.673Z,32
2016-07-08T10:23:10.671Z,32
2016-07-08T10:24:10.730Z,32
2016-07-08T10:25:10.725Z,32
2016-07-08T10:26:10.733Z,32
2016-07-08T10:27:10.738Z,32
2016-07-08T10:28:10.784Z,32
2016-07-08T10:29:10.734Z,32
2016-07-08T10:30:10.756Z,32
2016-07-08T10:31:10.739Z,32
2016-07-08T10:32:10.763Z,32
2016-07-08T10:33:10.762Z,28
2016-07-08T10:34:10.792Z,28
2016-07-08T10:35:10.825Z,28
2016-07-08T10:36:10.774Z,28
2016-07-08T10:37:10.827Z,32
2016-07-08T10:38:10.833Z,28
2016-07-08T10:39:10.834Z,32
2016-07-08T10:40:10.869Z,32
2016-07-08T10:41:10.827Z,32
2016-07-08T10:42:10.879Z,32
2016-07-08T10:43:10.877Z,32
2016-07-08T10:44:11.450Z,32
2016-07-08T10:45:10.898Z,32
2016-07-08T10:46:10.899Z,32
2016-07-08T10:47:10.919Z,32
2016-07-08T10:48:10.943Z,32
2016-07-08T10:49:10.928Z,32
2016-07-08T10:50:10.939Z,32
2016-07-08T10:51:10.941Z,36
2016-07-08T10:52:10.963Z,36
2016-07-08T10:53:10.991Z,36
2016-07-08T10:54:10.997Z,32
2016-07-08T10:55:10.974Z,36
2016-07-08T10:56:10.994Z,36
2016-07-08T10:57:11.013Z,36
2016-07-08T10:58:10.980Z,36
2016-07-08T10:59:11.057Z,36
2016-07-08T11:00:11.030Z,36
2016-07-08T11:01:11.028Z,36
2016-07-08T11:02:11.040Z,36
2016-07-08T11:03:11.062Z,36
2016-07-08T11:04:11.089Z,36
2016-07-08T11:05:11.096Z,36
2016-07-08T11:06:11.122Z,36
2016-07-08T11:07:11.104Z,32
2016-07-08T11:08:11.166Z,32
2016-07-08T11:09:11.158Z,32
2016-07-08T11:10:11.160Z,32
2016-07-08T11:11:11.130Z,32
2016-07-08T11:12:11.189Z,32
2016-07-08T11:13:11.143Z,32
2016-07-08T11:14:11.178Z,32
2016-07-08T11:15:11.206Z,32
2016-07-08T11:16:11.182Z,32
2016-07-08T11:17:11.211Z,36
2016-07-08T11:18:11.193Z,36
2016-07-08T11:19:11.227Z,32
2016-07-08T11:20:11.251Z,36
2016-07-08T11:21:11.233Z,36
2016-07-08T11:22:11.274Z,36
2016-07-08T11:23:11.241Z,36
2016-07-08T11:24:11.242Z,36
2016-07-08T11:25:11.278Z,36
2016-07-08T11:26:11.323Z,36
2016-07-08T11:27:11.304Z,36
2016-07-08T11:28:11.287Z,32
2016-07-08T11:29:11.329Z,32
2016-07-08T11:30:11.341Z,32
2016-07-08T11:31:11.337Z,36
2016-07-08T11:32:11.915Z,36
2016-07-08T11:33:11.325Z,36
2016-07-08T11:34:11.444Z,36
2016-07-08T11:35:11.351Z,36
2016-07-08T11:36:11.369Z,36
2016-07-08T11:37:11.382Z,36
2016-07-08T11:38:11.413Z,36
2016-07-08T11:39:11.376Z,32
2016-07-08T11:40:11.431Z,36
2016-07-08T11:41:12.074Z,36
2016-07-08T11:42:11.443Z,36
2016-07-08T11:43:11.481Z,36
2016-07-08T11:44:11.468Z,36
2016-07-08T11:45:11.476Z,36
2016-07-08T11:46:11.495Z,36
2016-07-08T11:47:11.543Z,36
2016-07-08T11:48:11.518Z,36
2016-07-08T11:49:11.540Z,36
2016-07-08T11:50:11.493Z,40
2016-07-08T11:51:11.525Z,36
2016-07-08T11:52:11.527Z,40
2016-07-08T11:53:11.526Z,36
2016-07-08T11:54:11.568Z,32
2016-07-08T11:55:11.550Z,36
2016-07-08T11:56:11.554Z,40
2016-07-08T11:57:11.611Z,40
2016-07-08T11:58:11.591Z,36
2016-07-08T11:59:11.600Z,36
2016-07-08T12:00:11.610Z,36
2016-07-08T12:01:11.618Z,36
2016-07-08T12:02:11.666Z,40
2016-07-08T12:03:11.670Z,36
2016-07-08T12:04:11.663Z,36
2016-07-08T12:05:11.644Z,40
2016-07-08T12:06:11.695Z,40
2016-07-08T12:07:11.717Z,44
2016-07-08T12:08:11.685Z,40
2016-07-08T12:09:11.706Z,40
2016-07-08T12:10:11.695Z,44
2016-07-08T12:11:11.698Z,44
2016-07-08T12:12:11.721Z,40
2016-07-08T12:13:11.718Z,40
2016-07-08T12:14:11.759Z,44
2016-07-08T12:15:11.781Z,44
2016-07-08T12:16:11.749Z,44
2016-07-08T12:17:11.771Z,40
2016-07-08T12:18:11.787Z,40
2016-07-08T12:19:11.800Z,40
2016-07-08T12:20:11.834Z,40
2016-07-08T12:21:11.835Z,40
2016-07-08T12:22:11.793Z,36
2016-07-08T12:23:11.825Z,36
2016-07-08T12:24:11.822Z,40
2016-07-08T12:25:11.857Z,36
2016-07-08T12:26:11.831Z,40
2016-07-08T12:27:11.891Z,40
2016-07-08T12:28:11.845Z,44
2016-07-08T12:29:11.848Z,44
2016-07-08T12:30:11.860Z,40
2016-07-08T12:31:11.916Z,36
2016-07-08T12:32:11.945Z,36
2016-07-08T12:33:11.965Z,36
2016-07-08T12:34:11.964Z,40
2016-07-08T12:35:11.930Z,40
2016-07-08T12:36:11.962Z,40
2016-07-08T12:37:11.972Z,40
2016-07-08T12:38:11.990Z,44
2016-07-08T12:39:12.009Z,44
2016-07-08T12:40:11.985Z,40
2016-07-08T12:41:11.980Z,40
2016-07-08T12:42:11.997Z,40
2016-07-08T12:43:12.028Z,40
2016-07-08T12:44:12.058Z,44
2016-07-08T12:45:12.646Z,40
2016-07-08T12:46:12.051Z,40
2016-07-08T12:47:12.072Z,40
2016-07-08T12:48:12.054Z,36
2016-07-08T12:49:12.082Z,36
2016-07-08T12:50:12.087Z,40
2016-07-08T12:51:12.077Z,40
2016-07-08T12:52:12.091Z,40
2016-07-08T12:53:12.079Z,40
2016-07-08T12:54:12.137Z,40
2016-07-08T12:55:12.102Z,40
2016-07-08T12:56:12.132Z,40
2016-07-08T12:57:12.186Z,40
2016-07-08T12:58:12.190Z,40
2016-07-08T12:59:12.213Z,40
2016-07-08T13:00:12.173Z,40
2016-07-08T13:01:12.221Z,40
2016-07-08T13:02:12.183Z,36
2016-07-08T13:03:12.226Z,36
2016-07-08T13:04:12.185Z,36
2016-07-08T13:05:12.242Z,32
2016-07-08T13:06:12.223Z,36
2016-07-08T13:07:12.259Z,40
2016-07-08T13:08:12.277Z,40
2016-07-08T13:09:12.289Z,40
2016-07-08T13:10:12.289Z,36
2016-07-08T13:11:12.316Z,40
2016-07-08T13:12:12.317Z,36
2016-07-08T13:13:12.285Z,40
2016-07-08T13:14:12.342Z,40
2016-07-08T13:15:12.337Z,40
2016-07-08T13:16:12.333Z,40
2016-07-08T13:17:12.360Z,36
2016-07-08T13:18:12.351Z,36
2016-07-08T13:19:12.405Z,36
2016-07-08T13:20:12.405Z,36
2016-07-08T13:21:12.406Z,36
2016-07-08T13:22:12.368Z,36
2016-07-08T13:23:12.411Z,40
2016-07-08T13:24:12.427Z,40
2016-07-08T13:25:12.418Z,36
2016-07-08T13:26:12.418Z,40
2016-07-08T13:27:12.432Z,36
2016-07-08T13:28:12.489Z,40
2016-07-08T13:29:12.471Z,36
2016-07-08T13:30:12.500Z,40
2016-07-08T13:31:12.487Z,36
2016-07-08T13:32:12.530Z,36
2016-07-08T13:33:12.531Z,36
2016-07-08T13:34:12.587Z,36
2016-07-08T13:35:12.581Z,32
2016-07-08T13:36:12.554Z,32
2016-07-08T13:37:12.566Z,32
2016-07-08T13:38:12.550Z,28
2016-07-08T13:39:12.563Z,32
2016-07-08T13:40:12.567Z,36
2016-07-08T13:41:12.627Z,36
2016-07-08T13:42:12.616Z,36
2016-07-08T13:43:12.622Z,36
2016-07-08T13:44:12.604Z,32
2016-07-08T13:45:12.644Z,36
2016-07-08T13:46:12.657Z,36
2016-07-08T13:47:12.651Z,32
2016-07-08T13:48:13.266Z,36
2016-07-08T13:49:12.681Z,36
2016-07-08T13:50:12.683Z,40
2016-07-08T13:51:12.658Z,40
2016-07-08T13:52:12.695Z,40
2016-07-08T13:53:12.722Z,36
2016-07-08T13:54:12.701Z,36
2016-07-08T13:55:12.707Z,36
2016-07-08T13:56:12.747Z,40
2016-07-08T13:57:12.779Z,36
2016-07-08T13:58:12.763Z,32
2016-07-08T13:59:12.744Z,36
2016-07-08T14:00:12.752Z,24
2016-07-08T14:01:12.805Z,32
2016-07-08T14:02:12.808Z,36
2016-07-08T14:03:12.804Z,36
2016-07-08T14:04:12.828Z,32
2016-07-08T14:05:12.832Z,32
2016-07-08T14:06:12.807Z,32
2016-07-08T14:07:12.868Z,36
2016-07-08T14:08:12.857Z,32
2016-07-08T14:09:12.851Z,32
2016-07-08T14:10:12.848Z,32
2016-07-08T14:11:12.909Z,28
2016-07-08T14:12:12.937Z,28
2016-07-08T14:13:12.918Z,28
2016-07-08T14:14:12.926Z,28
2016-07-08T14:15:12.927Z,32
2016-07-08T14:16:12.920Z,28
2016-07-08T14:17:12.969Z,28
2016-07-08T14:18:12.999Z,24
2016-07-08T14:19:12.969Z,28
2016-07-08T14:20:12.975Z,28
2016-07-08T14:21:12.959Z,24
2016-07-08T14:22:13.011Z,16
2016-07-08T14:23:12.995Z,28
2016-07-08T14:24:13.029Z,28
2016-07-08T14:25:13.059Z,28